Manville, Rhode Island
Current Conditions -  °F | °C
As of 12:55 PM on Thursday 30 Oct 2014 (Local Time) from KSFZ Reporting Station
Clear Clear  
Wind Chill: 57°   Ceiling: Unl
Heat Index: 57°   Visibility: 10mi
Dew Point: 34°   Wind: 13mph
Humidity: 41%   Direction: 300°WNW
Pressure: 29.92"   Gusts: 18mph
Location:  41.97°N, 71.47°W
Report Text: KSFZ 301655Z 30011G16KT 10SM CLR 14/01 A2992 RMK AO1
Loading
Personal Weather Stations






























Interactive Weather Map
Tropical Storm Tracking
New forecast layout! Learn more

10-Day Weather Forecast

Advertisements
Track Severe Weather on mobile